createdAt,value
2022-08-26T00:00:51.263Z,97372.63
2022-08-26T00:03:18.459Z,97381.41
2022-08-26T00:05:46.407Z,97373.47
2022-08-26T00:08:14.244Z,97383.19
2022-08-26T00:10:41.169Z,97381.72
2022-08-26T00:13:07.994Z,97379.81
2022-08-26T00:15:35.330Z,97376.41
2022-08-26T00:18:01.790Z,97380.66
2022-08-26T00:20:29.515Z,97378.53
2022-08-26T00:22:57.418Z,97378.97
2022-08-26T00:25:25.571Z,97379.41
2022-08-26T00:27:52.716Z,97372.81
2022-08-26T00:30:22.784Z,97374.31
2022-08-26T00:32:50.812Z,97376.63
2022-08-26T00:35:19.061Z,97379.22
2022-08-26T00:37:45.658Z,97370.63
2022-08-26T00:40:15.618Z,97370.22
2022-08-26T00:42:45.826Z,97369.56
2022-08-26T00:45:13.826Z,97365.53
2022-08-26T00:47:44.114Z,97370.13
2022-08-26T00:50:13.602Z,97371.59
2022-08-26T00:52:42.830Z,97368.84
2022-08-26T00:55:20.382Z,97376.88
2022-08-26T00:57:48.379Z,97371.81
2022-08-26T01:00:17.555Z,97373.94
2022-08-26T01:02:46.920Z,97372.09
2022-08-26T01:05:14.284Z,97376.09
2022-08-26T01:07:40.867Z,97376.72
2022-08-26T01:10:08.973Z,97378.63
2022-08-26T01:12:38.898Z,97383.03
2022-08-26T01:15:07.646Z,97379.25
2022-08-26T01:17:38.469Z,97375.69
2022-08-26T01:20:25.850Z,97377.13
2022-08-26T01:23:01.548Z,97373.56
2022-08-26T01:25:32.727Z,97377.38
2022-08-26T01:28:01.761Z,97371.69
2022-08-26T01:30:29.853Z,97382.19
2022-08-26T01:32:58.309Z,97379.47
2022-08-26T01:35:24.888Z,97377.38
2022-08-26T01:37:53.715Z,97377.38
2022-08-26T01:40:32.602Z,97368.94
2022-08-26T01:43:01.205Z,97364.31
2022-08-26T01:45:30.420Z,97355.91
2022-08-26T01:47:58.445Z,97360.16
2022-08-26T01:50:31.760Z,97363.47
2022-08-26T01:53:01.089Z,97369.91
2022-08-26T01:55:33.149Z,97374.63
2022-08-26T01:58:01.238Z,97378.81
2022-08-26T02:00:28.075Z,97370.94
2022-08-26T02:03:15.903Z,97369.94
2022-08-26T02:05:51.326Z,97375.69
2022-08-26T02:08:20.602Z,97361.38
2022-08-26T02:10:51.535Z,97371.28
2022-08-26T02:13:21.921Z,97372.13
2022-08-26T02:15:49.286Z,97359.31
2022-08-26T02:18:16.542Z,97370.63
2022-08-26T02:20:43.094Z,97363.94
2022-08-26T02:23:10.046Z,97362.84
2022-08-26T02:25:44.720Z,97373.53
2022-08-26T02:28:12.592Z,97374.41
2022-08-26T02:30:40.408Z,97377.13
2022-08-26T02:33:07.041Z,97373.16
2022-08-26T02:35:35.565Z,97375.25
2022-08-26T02:38:02.615Z,97371.91
2022-08-26T02:40:40.530Z,97377.38
2022-08-26T02:43:08.773Z,97372.13
2022-08-26T02:45:35.717Z,97369.38
2022-08-26T02:48:09.218Z,97358.03
2022-08-26T02:50:37.978Z,97362.06
2022-08-26T02:53:06.376Z,97361.00
2022-08-26T02:55:33.030Z,97363.09
2022-08-26T02:57:59.932Z,97359.31
2022-08-26T03:00:27.426Z,97363.50
2022-08-26T03:02:54.408Z,97356.28
2022-08-26T03:05:22.140Z,97360.13
2022-08-26T03:07:50.897Z,97345.00
2022-08-26T03:10:17.603Z,97361.00
2022-08-26T03:12:47.522Z,97349.25
2022-08-26T03:15:17.861Z,97353.44
2022-08-26T03:17:46.427Z,97348.22
2022-08-26T03:20:13.662Z,97351.53
2022-08-26T03:22:42.147Z,97349.63
2022-08-26T03:25:10.130Z,97350.06
2022-08-26T03:27:36.769Z,97345.06
2022-08-26T03:30:22.531Z,97346.75
2022-08-26T03:32:49.362Z,97345.06
2022-08-26T03:35:16.468Z,97341.03
2022-08-26T03:37:43.537Z,97342.91
2022-08-26T03:40:11.541Z,97346.50
2022-08-26T03:42:39.306Z,97345.47
2022-08-26T03:45:07.345Z,97345.06
2022-08-26T03:47:33.870Z,97337.47
2022-08-26T03:50:01.015Z,97344.41
2022-08-26T03:52:27.923Z,97347.56
2022-08-26T03:54:54.406Z,97345.03
2022-08-26T03:57:20.887Z,97345.03
2022-08-26T03:59:48.958Z,97360.13
2022-08-26T04:02:15.603Z,97347.97
2022-08-26T04:04:43.270Z,97353.44
2022-08-26T04:07:09.796Z,97347.53
2022-08-26T04:09:36.656Z,97357.66
2022-08-26T04:12:04.458Z,97351.31
2022-08-26T04:14:32.278Z,97359.69
2022-08-26T04:16:59.058Z,97344.78
2022-08-26T04:19:25.962Z,97341.88
2022-08-26T04:21:53.313Z,97347.13
2022-08-26T04:24:21.247Z,97345.00
2022-08-26T04:26:48.249Z,97344.16
2022-08-26T04:29:18.007Z,97346.06
2022-08-26T04:31:45.327Z,97353.38
2022-08-26T04:34:11.953Z,97351.06
2022-08-26T04:36:41.242Z,97358.03
2022-08-26T04:39:11.992Z,97356.34
2022-08-26T04:41:39.234Z,97354.66
2022-08-26T04:44:07.059Z,97349.22
2022-08-26T04:46:33.729Z,97354.03
2022-08-26T04:49:00.345Z,97354.88
2022-08-26T04:51:29.755Z,97356.78
2022-08-26T04:53:57.603Z,97356.41
2022-08-26T04:56:29.467Z,97361.22
2022-08-26T04:58:56.555Z,97352.38
2022-08-26T05:01:23.876Z,97351.94
2022-08-26T05:03:51.044Z,97347.50
2022-08-26T05:06:19.070Z,97355.66
2022-08-26T05:08:45.698Z,97350.78
2022-08-26T05:11:12.735Z,97350.53
2022-08-26T05:13:39.348Z,97355.16
2022-08-26T05:16:07.439Z,97356.13
2022-08-26T05:18:34.682Z,97358.19
2022-08-26T05:21:02.933Z,97359.97
2022-08-26T05:23:31.398Z,97359.66
2022-08-26T05:26:00.315Z,97364.75
2022-08-26T05:28:28.369Z,97359.41
2022-08-26T05:30:55.645Z,97361.75
2022-08-26T05:33:22.898Z,97366.69
2022-08-26T05:35:49.447Z,97352.72
2022-08-26T05:38:17.650Z,97352.25
2022-08-26T05:40:45.849Z,97352.75
2022-08-26T05:43:13.433Z,97358.00
2022-08-26T05:45:46.084Z,97353.59
2022-08-26T05:48:13.688Z,97356.25
2022-08-26T05:50:41.446Z,97364.69
2022-08-26T05:53:10.645Z,97361.44
2022-08-26T05:55:44.421Z,97357.38
2022-08-26T05:58:11.439Z,97354.13
2022-08-26T06:00:38.546Z,97357.84
2022-08-26T06:03:09.511Z,97356.91
2022-08-26T06:05:40.020Z,97357.91
2022-08-26T06:08:19.180Z,97357.16
2022-08-26T06:10:47.662Z,97358.44
2022-08-26T06:13:16.018Z,97369.25
2022-08-26T06:15:45.634Z,97364.97
2022-08-26T06:18:14.507Z,97360.41
2022-08-26T06:20:44.122Z,97366.78
2022-08-26T06:23:43.992Z,97358.78
2022-08-26T06:26:11.293Z,97357.50
2022-08-26T06:28:38.122Z,97350.75
2022-08-26T06:31:06.033Z,97347.66
2022-08-26T06:33:32.768Z,97343.53
2022-08-26T06:36:01.040Z,97354.00
2022-08-26T06:38:28.544Z,97355.16
2022-08-26T06:40:55.078Z,97343.38
2022-08-26T06:43:23.754Z,97341.84
2022-08-26T06:45:52.141Z,97352.31
2022-08-26T06:48:20.034Z,97345.28
2022-08-26T06:50:46.561Z,97349.69
2022-08-26T06:53:17.018Z,97352.44
2022-08-26T06:55:46.063Z,97346.63
2022-08-26T06:58:13.811Z,97350.78
2022-08-26T07:00:40.457Z,97345.88
2022-08-26T07:03:13.725Z,97335.00
2022-08-26T07:05:40.697Z,97333.06
2022-08-26T07:08:07.191Z,97337.84
2022-08-26T07:10:35.769Z,97331.97
2022-08-26T07:13:02.793Z,97333.84
2022-08-26T07:15:31.371Z,97332.78
2022-08-26T07:17:58.188Z,97335.81
2022-08-26T07:20:24.792Z,97332.44
2022-08-26T07:22:51.554Z,97335.28
2022-08-26T07:25:19.306Z,97332.78
2022-08-26T07:27:46.833Z,97334.13
2022-08-26T07:30:20.845Z,97328.59
2022-08-26T07:32:47.582Z,97323.94
2022-08-26T07:35:14.658Z,97322.56
2022-08-26T07:37:42.281Z,97322.03
2022-08-26T07:40:09.435Z,97332.44
2022-08-26T07:42:36.008Z,97326.31
2022-08-26T07:45:02.501Z,97327.03
2022-08-26T07:47:29.026Z,97321.00
2022-08-26T07:49:56.631Z,97321.97
2022-08-26T07:52:26.988Z,97315.25
2022-08-26T07:54:54.160Z,97314.34
2022-08-26T07:57:21.004Z,97309.56
2022-08-26T07:59:47.506Z,97316.56
2022-08-26T08:02:14.032Z,97307.72
2022-08-26T08:04:40.650Z,97319.41
2022-08-26T08:07:07.583Z,97307.53
2022-08-26T08:09:38.094Z,97304.84
2022-08-26T08:12:07.739Z,97311.09
2022-08-26T08:14:36.488Z,97306.69
2022-08-26T08:17:03.839Z,97301.09
2022-08-26T08:19:39.126Z,97299.03
2022-08-26T08:22:13.319Z,97303.81
2022-08-26T08:24:45.085Z,97294.41
2022-08-26T08:27:11.610Z,97299.72
2022-08-26T08:29:38.616Z,97292.75
2022-08-26T08:32:05.580Z,97299.78
2022-08-26T08:34:38.346Z,97304.09
2022-08-26T08:37:08.606Z,97299.53
2022-08-26T08:39:37.112Z,97300.53
2022-08-26T08:42:07.825Z,97286.25
2022-08-26T08:44:37.337Z,97286.16
2022-08-26T08:47:13.133Z,97287.63
2022-08-26T08:49:39.753Z,97295.72
2022-08-26T08:52:08.967Z,97296.91
2022-08-26T08:54:38.180Z,97280.78
2022-08-26T08:57:04.739Z,97284.84
2022-08-26T08:59:32.602Z,97284.91
2022-08-26T09:02:25.682Z,97282.09
2022-08-26T09:05:02.330Z,97279.31
2022-08-26T09:07:40.227Z,97292.91
2022-08-26T09:10:25.527Z,97283.50
2022-08-26T09:12:52.230Z,97293.19
2022-08-26T09:15:28.562Z,97290.09
2022-08-26T09:18:06.786Z,97288.53
2022-08-26T09:20:48.676Z,97275.69
2022-08-26T09:23:15.821Z,97280.00
2022-08-26T09:25:55.678Z,97280.00
2022-08-26T09:28:23.334Z,97284.38
2022-08-26T09:31:11.531Z,97284.53
2022-08-26T09:33:38.386Z,97277.69
2022-08-26T09:36:15.638Z,97266.97
2022-08-26T09:38:42.761Z,97273.53
2022-08-26T09:41:27.138Z,97281.19
2022-08-26T09:44:14.734Z,97277.38
2022-08-26T09:46:54.266Z,97274.91
2022-08-26T09:49:20.758Z,97270.84
2022-08-26T09:51:50.095Z,97270.84
2022-08-26T09:54:30.491Z,97272.13
2022-08-26T09:57:31.532Z,97254.59
2022-08-26T10:00:01.255Z,97260.31
2022-08-26T10:02:40.638Z,97260.13
2022-08-26T10:05:17.103Z,97253.56
2022-08-26T10:07:48.708Z,97261.09
2022-08-26T10:10:31.418Z,97252.84
2022-08-26T10:13:09.178Z,97248.38
2022-08-26T10:15:45.376Z,97244.59
2022-08-26T10:18:27.899Z,97250.31
2022-08-26T10:21:23.835Z,97250.94
2022-08-26T10:23:51.893Z,97242.31
2022-08-26T10:26:24.459Z,97234.34
2022-08-26T10:28:51.067Z,97240.53
2022-08-26T10:31:27.681Z,97237.63
2022-08-26T10:33:58.662Z,97236.16
2022-08-26T10:37:10.639Z,97230.34
2022-08-26T10:39:39.263Z,97232.63
2022-08-26T10:42:13.784Z,97224.09
2022-08-26T10:44:43.844Z,97223.22
2022-08-26T10:47:16.705Z,97218.38
2022-08-26T10:49:45.903Z,97219.00
2022-08-26T10:52:21.981Z,97207.00
2022-08-26T10:55:03.099Z,97218.41
2022-08-26T10:57:48.326Z,97217.81
2022-08-26T11:01:03.425Z,97206.69
2022-08-26T11:03:43.435Z,97213.00
2022-08-26T11:06:15.724Z,97208.81
2022-08-26T11:08:50.414Z,97206.38
2022-08-26T11:11:35.586Z,97205.94
2022-08-26T11:14:07.287Z,97204.72
2022-08-26T11:16:33.781Z,97201.03
2022-08-26T11:19:01.203Z,97203.56
2022-08-26T11:21:43.496Z,97202.84
2022-08-26T11:24:31.804Z,97200.09
2022-08-26T11:26:58.283Z,97195.66
2022-08-26T11:29:43.618Z,97190.28
2022-08-26T11:32:23.734Z,97202.84
2022-08-26T11:34:52.465Z,97187.16
2022-08-26T11:39:55.488Z,97182.41
2022-08-26T11:42:31.526Z,97185.81
2022-08-26T11:44:59.857Z,97184.38
2022-08-26T11:47:30.140Z,97176.59
2022-08-26T11:50:09.491Z,97177.66
2022-08-26T11:52:36.735Z,97164.41
2022-08-26T11:55:03.330Z,97173.38
2022-08-26T11:57:31.544Z,97167.84
2022-08-26T11:59:58.542Z,97173.16
2022-08-26T12:02:26.163Z,97169.00
2022-08-26T12:04:53.531Z,97171.31
2022-08-26T12:07:27.549Z,97159.59
2022-08-26T12:10:00.510Z,97158.13
2022-08-26T12:12:34.696Z,97157.41
2022-08-26T12:15:04.632Z,97143.81
2022-08-26T12:17:31.853Z,97144.66
2022-08-26T12:19:58.444Z,97129.44
2022-08-26T12:22:30.346Z,97138.78
2022-08-26T12:25:01.279Z,97138.97
2022-08-26T12:27:32.146Z,97136.22
2022-08-26T12:30:08.496Z,97137.66
2022-08-26T12:32:35.924Z,97131.44
2022-08-26T12:35:10.492Z,97128.50
2022-08-26T12:37:39.937Z,97127.22
2022-08-26T12:40:25.785Z,97118.41
2022-08-26T12:42:53.327Z,97123.47
2022-08-26T12:45:46.200Z,97125.41
2022-08-26T12:48:26.886Z,97125.03
2022-08-26T12:50:53.714Z,97116.41
2022-08-26T12:53:20.223Z,97110.09
2022-08-26T12:55:48.286Z,97114.34
2022-08-26T12:58:23.833Z,97098.25
2022-08-26T13:00:58.281Z,97100.88
2022-08-26T13:03:30.961Z,97103.94
2022-08-26T13:06:09.492Z,97094.53
2022-08-26T13:08:46.730Z,97091.19
2022-08-26T13:11:18.452Z,97080.41
2022-08-26T13:13:45.708Z,97078.97
2022-08-26T13:16:14.029Z,97086.47
2022-08-26T13:18:40.562Z,97079.03
2022-08-26T13:21:17.673Z,97080.00
2022-08-26T13:23:44.624Z,97075.56
2022-08-26T13:26:11.494Z,97073.66
2022-08-26T13:28:38.027Z,97070.97
2022-08-26T13:31:04.972Z,97070.81
2022-08-26T13:33:32.562Z,97069.81
2022-08-26T13:35:59.430Z,97065.00
2022-08-26T13:38:33.586Z,97062.03
2022-08-26T13:41:02.590Z,97059.28
2022-08-26T13:43:29.743Z,97056.97
2022-08-26T13:45:56.662Z,97060.00
2022-08-26T13:48:23.715Z,97056.03
2022-08-26T13:50:50.679Z,97047.06
2022-08-26T13:53:17.612Z,97051.00
2022-08-26T13:55:44.359Z,97042.03
2022-08-26T13:58:12.194Z,97044.59
2022-08-26T14:00:39.662Z,97042.81
2022-08-26T14:03:10.156Z,97038.00
2022-08-26T14:05:39.245Z,97036.44
2022-08-26T14:08:06.240Z,97032.59
2022-08-26T14:10:33.523Z,97039.56
2022-08-26T14:13:00.090Z,97026.53
2022-08-26T14:15:26.934Z,97033.97
2022-08-26T14:17:55.900Z,97034.16
2022-08-26T14:20:24.965Z,97022.44
2022-08-26T14:23:12.629Z,97037.59
2022-08-26T14:25:39.121Z,97031.72
2022-08-26T14:28:05.617Z,97021.38
2022-08-26T14:30:32.314Z,97018.59
2022-08-26T14:33:01.783Z,97023.91
2022-08-26T14:35:30.824Z,97018.91
2022-08-26T14:37:57.486Z,97022.25
2022-08-26T14:40:27.239Z,97013.50
2022-08-26T14:42:54.405Z,97022.97
2022-08-26T14:45:22.614Z,97009.28
2022-08-26T14:47:49.995Z,97004.09
2022-08-26T14:50:18.630Z,97003.59
2022-08-26T14:53:17.537Z,96996.75
2022-08-26T14:55:44.929Z,97007.91
2022-08-26T14:58:11.487Z,97012.25
2022-08-26T15:00:38.231Z,97009.78
2022-08-26T15:03:05.607Z,97005.69
2022-08-26T15:05:33.025Z,96995.75
2022-08-26T15:07:59.534Z,97000.50
2022-08-26T15:10:26.156Z,96989.53
2022-08-26T15:12:52.686Z,96986.25
2022-08-26T15:15:21.483Z,96986.19
2022-08-26T15:17:51.020Z,96979.94
2022-08-26T15:20:20.901Z,96972.63
2022-08-26T15:22:48.369Z,96978.81
2022-08-26T15:25:17.446Z,96973.63
2022-08-26T15:27:47.145Z,96974.38
2022-08-26T15:30:18.202Z,96969.78
2022-08-26T15:32:47.831Z,96965.16
2022-08-26T15:35:20.316Z,96963.47
2022-08-26T15:37:47.454Z,96964.09
2022-08-26T15:40:14.094Z,96961.34
2022-08-26T15:42:40.719Z,96966.28
2022-08-26T15:45:07.500Z,96969.22
2022-08-26T15:47:48.402Z,96968.84
2022-08-26T15:50:20.960Z,96967.63
2022-08-26T15:52:47.874Z,96969.16
2022-08-26T15:55:14.411Z,96962.69
2022-08-26T15:57:40.986Z,96959.53
2022-08-26T16:00:09.665Z,96959.19
2022-08-26T16:02:38.693Z,96961.47
2022-08-26T16:05:05.324Z,96958.81
2022-08-26T16:07:32.111Z,96958.56
2022-08-26T16:09:58.911Z,96955.78
2022-08-26T16:12:25.390Z,96959.56
2022-08-26T16:14:53.861Z,96953.88
2022-08-26T16:17:20.421Z,96961.84
2022-08-26T16:22:43.079Z,96962.16
2022-08-26T16:25:09.987Z,96970.50
2022-08-26T16:27:36.643Z,96965.97
2022-08-26T16:30:06.968Z,96964.72
2022-08-26T16:32:33.554Z,96958.28
2022-08-26T16:35:00.114Z,96962.22
2022-08-26T16:37:26.683Z,96963.34
2022-08-26T16:39:53.270Z,96960.16
2022-08-26T16:42:19.838Z,96957.09
2022-08-26T16:44:46.462Z,96952.47
2022-08-26T16:47:14.357Z,96957.38
2022-08-26T16:49:41.711Z,96955.75
2022-08-26T16:52:09.065Z,96957.41
2022-08-26T16:54:35.955Z,96962.16
2022-08-26T16:57:02.524Z,96958.34
2022-08-26T16:59:29.198Z,96963.56
2022-08-26T17:01:55.845Z,96964.41
2022-08-26T17:04:22.471Z,96964.44
2022-08-26T17:06:49.026Z,96968.59
2022-08-26T17:09:15.746Z,96969.94
2022-08-26T17:11:42.547Z,96962.75
2022-08-26T17:14:09.619Z,96968.56
2022-08-26T17:16:36.249Z,96965.22
2022-08-26T17:19:04.430Z,96959.97
2022-08-26T17:21:31.913Z,96970.94
2022-08-26T17:23:59.299Z,96974.78
2022-08-26T17:26:26.711Z,96974.75
2022-08-26T17:28:53.538Z,96973.38
2022-08-26T17:31:20.443Z,96971.94
2022-08-26T17:33:53.379Z,96977.53
2022-08-26T17:36:20.264Z,96978.66
2022-08-26T17:38:46.762Z,96977.38
2022-08-26T17:41:16.450Z,96976.16
2022-08-26T17:43:43.083Z,96984.94
2022-08-26T17:46:10.106Z,96987.47
2022-08-26T17:48:37.352Z,96983.19
2022-08-26T17:51:08.192Z,96984.28
2022-08-26T17:53:34.870Z,96991.91
2022-08-26T17:56:01.547Z,96992.16
2022-08-26T17:58:28.745Z,96988.88
2022-08-26T18:00:55.598Z,96998.50
2022-08-26T18:03:22.887Z,96995.56
2022-08-26T18:05:52.811Z,96993.81
2022-08-26T18:08:20.034Z,96997.16
2022-08-26T18:10:47.071Z,97000.94
2022-08-26T18:13:14.877Z,97004.16
2022-08-26T18:15:45.531Z,97001.78
2022-08-26T18:18:13.709Z,97008.41
2022-08-26T18:20:41.142Z,97015.69
2022-08-26T18:23:07.691Z,97014.06
2022-08-26T18:25:34.269Z,97008.84
2022-08-26T18:28:00.920Z,97015.75
2022-08-26T18:30:27.530Z,97012.56
2022-08-26T18:32:54.030Z,97016.06
2022-08-26T18:35:21.497Z,97019.84
2022-08-26T18:37:48.128Z,97018.81
2022-08-26T18:40:16.104Z,97022.03
2022-08-26T18:42:42.768Z,97029.13
2022-08-26T18:45:09.648Z,97017.44
2022-08-26T18:47:42.621Z,97027.53
2022-08-26T18:50:10.821Z,97030.03
2022-08-26T18:52:37.658Z,97033.69
2022-08-26T18:55:04.355Z,97035.09
2022-08-26T18:57:30.905Z,97033.78
2022-08-26T18:59:57.666Z,97036.13
2022-08-26T19:02:24.484Z,97040.22
2022-08-26T19:04:51.813Z,97043.38
2022-08-26T19:07:19.256Z,97044.13
2022-08-26T19:09:45.757Z,97047.13
2022-08-26T19:12:12.333Z,97056.25
2022-08-26T19:14:38.866Z,97056.69
2022-08-26T19:17:05.581Z,97045.66
2022-08-26T19:19:32.182Z,97058.03
2022-08-26T19:21:58.989Z,97051.69
2022-08-26T19:24:27.445Z,97057.22
2022-08-26T19:26:58.101Z,97056.94
2022-08-26T19:29:26.872Z,97063.34
2022-08-26T19:31:53.409Z,97069.69
2022-08-26T19:34:20.707Z,97080.84
2022-08-26T19:36:47.702Z,97080.84
2022-08-26T19:39:14.227Z,97078.03
2022-08-26T19:41:40.865Z,97075.03
2022-08-26T19:44:12.875Z,97072.38
2022-08-26T19:46:39.873Z,97077.53
2022-08-26T19:49:06.402Z,97082.09
2022-08-26T19:51:33.697Z,97085.88
2022-08-26T19:54:01.107Z,97079.69
2022-08-26T19:56:28.068Z,97080.69
2022-08-26T19:58:55.172Z,97074.13
2022-08-26T20:01:22.252Z,97069.03
2022-08-26T20:03:48.890Z,97075.94
2022-08-26T20:06:16.185Z,97077.94
2022-08-26T20:08:43.231Z,97074.47
2022-08-26T20:11:12.637Z,97070.13
2022-08-26T20:13:39.832Z,97061.47
2022-08-26T20:16:06.505Z,97064.13
2022-08-26T20:18:51.778Z,97063.25
2022-08-26T20:21:27.337Z,97072.28
2022-08-26T20:23:58.256Z,97065.03
2022-08-26T20:26:25.238Z,97067.75
2022-08-26T20:28:51.786Z,97067.97
2022-08-26T20:31:19.403Z,97062.00
2022-08-26T20:33:46.764Z,97060.09
2022-08-26T20:36:13.814Z,97062.94
2022-08-26T20:38:40.298Z,97066.75
2022-08-26T20:41:06.806Z,97069.31
2022-08-26T20:43:33.377Z,97068.44
2022-08-26T20:46:00.702Z,97069.41
2022-08-26T20:48:27.251Z,97072.72
2022-08-26T20:50:56.999Z,97087.03
2022-08-26T20:53:24.301Z,97080.38
2022-08-26T20:55:53.764Z,97071.81
2022-08-26T20:58:23.101Z,97076.84
2022-08-26T21:00:50.056Z,97083.50
2022-08-26T21:03:16.630Z,97073.16
2022-08-26T21:05:43.169Z,97074.97
2022-08-26T21:08:09.954Z,97074.84
2022-08-26T21:10:39.323Z,97075.19
2022-08-26T21:13:05.902Z,97074.81
2022-08-26T21:15:32.546Z,97075.41
2022-08-26T21:17:59.795Z,97071.38
2022-08-26T21:20:26.355Z,97075.94
2022-08-26T21:22:52.863Z,97078.78
2022-08-26T21:25:19.412Z,97078.31
2022-08-26T21:27:45.982Z,97069.69
2022-08-26T21:30:14.074Z,97074.72
2022-08-26T21:32:40.686Z,97074.59
2022-08-26T21:35:07.497Z,97074.47
2022-08-26T21:37:34.270Z,97077.00
2022-08-26T21:40:04.888Z,97077.22
2022-08-26T21:42:33.334Z,97087.84
2022-08-26T21:44:59.986Z,97081.53
2022-08-26T21:47:26.543Z,97089.13
2022-08-26T21:49:53.421Z,97085.19
2022-08-26T21:52:21.223Z,97084.03
2022-08-26T21:54:49.194Z,97075.31
2022-08-26T21:57:16.327Z,97077.44
2022-08-26T21:59:42.798Z,97079.34
2022-08-26T22:02:09.303Z,97075.63
2022-08-26T22:04:36.106Z,97066.78
2022-08-26T22:07:03.452Z,97064.88
2022-08-26T22:09:33.466Z,97069.63
2022-08-26T22:12:00.566Z,97060.59
2022-08-26T22:14:30.656Z,97063.94
2022-08-26T22:16:58.332Z,97066.28
2022-08-26T22:19:24.961Z,97066.66
2022-08-26T22:21:52.893Z,97074.91
2022-08-26T22:24:20.675Z,97064.38
2022-08-26T22:26:47.938Z,97070.91
2022-08-26T22:29:14.953Z,97061.09
2022-08-26T22:31:43.373Z,97063.56
2022-08-26T22:34:11.878Z,97057.97
2022-08-26T22:36:43.562Z,97062.69
2022-08-26T22:39:11.913Z,97063.91
2022-08-26T22:41:38.433Z,97058.41
2022-08-26T22:44:05.177Z,97053.31
2022-08-26T22:46:34.715Z,97058.06
2022-08-26T22:49:01.424Z,97055.31
2022-08-26T22:51:28.141Z,97067.59
2022-08-26T22:53:54.780Z,97064.59
2022-08-26T22:56:22.067Z,97067.22
2022-08-26T22:58:48.851Z,97066.03
2022-08-26T23:01:16.857Z,97061.31
2022-08-26T23:03:44.095Z,97056.88
2022-08-26T23:06:10.769Z,97062.38
2022-08-26T23:08:38.382Z,97056.91
2022-08-26T23:11:08.278Z,97056.34
2022-08-26T23:13:34.790Z,97054.50
2022-08-26T23:16:02.382Z,97054.03
2022-08-26T23:18:29.008Z,97050.53
2022-08-26T23:20:56.816Z,97049.28
2022-08-26T23:23:23.958Z,97042.78
2022-08-26T23:25:50.434Z,97046.31
2022-08-26T23:28:17.510Z,97050.47
2022-08-26T23:30:44.063Z,97045.31
2022-08-26T23:33:10.568Z,97043.69
2022-08-26T23:35:37.065Z,97048.19
2022-08-26T23:38:05.162Z,97045.94
2022-08-26T23:40:33.169Z,97050.84
2022-08-26T23:43:01.293Z,97048.69
2022-08-26T23:45:27.831Z,97043.38
2022-08-26T23:47:54.799Z,97044.63
2022-08-26T23:50:22.293Z,97037.41
2022-08-26T23:53:08.614Z,97041.16
2022-08-26T23:55:38.881Z,97034.56
2022-08-26T23:58:05.842Z,97037.06
